Time;durP1;ratioP1;P1;durP2;ratioP2;P2;SDS_P1;SDS_P2;PMS_P1;PMS_P2;Temp;Humidity;BMP_temperature;BMP_pressure;BME280_temperature;BME280_humidity;BME280_pressure;Samples;Min_cycle;Max_cycle;Signal;HPM_P1;HPM_P2
2023/09/15 00:02:43;;;;;;;;;;;;;;;;;;5048335;28;19928;-90
2023/09/15 00:05:10;;;;;;;;;;;;;;;;;;5029648;28;19929;-89
2023/09/15 00:07:36;;;;;;;;;;;;;;;;;;5047119;28;19947;-89
2023/09/15 00:10:02;;;;;;;;;;;;;;;;;;5044226;28;19924;-89
2023/09/15 00:12:27;;;;;;;;;;;;;;;;;;5028562;28;20099;-88
2023/09/15 00:14:53;;;;;;;;;;;;;;;;;;5029699;28;19928;-89
2023/09/15 00:17:19;;;;;;;;;;;;;;;;;;5025761;28;19958;-88
2023/09/15 00:19:46;;;;;;;;;;;;;;;;;;5027843;28;19928;-89
2023/09/15 00:22:12;;;;;;;;;;;;;;;;;;5028782;28;20383;-89
2023/09/15 00:24:40;;;;;;;;;;;;;;;;;;5023865;28;19928;-91
2023/09/15 00:27:06;;;;;;;;;;;;;;;;;;5023230;28;19936;-90
2023/09/15 00:29:32;;;;;;;;;;;;;;;;;;5043605;28;19920;-90
2023/09/15 00:31:58;;;;;;;;;;;;;;;;;;5040883;28;19928;-89
2023/09/15 00:34:24;;;;;;;;;;;;;;;;;;5021990;28;19964;-89
2023/09/15 00:36:50;;;;;;;;;;;;;;;;;;5040366;28;20043;-90
2023/09/15 00:39:15;;;;;;;;;;;;;;;;;;5022512;28;20117;-90
2023/09/15 00:41:41;;;;;;;;;;;;;;;;;;5024370;28;19932;-89
2023/09/15 00:44:07;;;;;;;;;;;;;;;;;;5024158;28;19929;-88
2023/09/15 00:46:34;;;;;;;;;;;;;;;;;;5026292;28;20004;-89
2023/09/15 00:49:00;;;;;;;;;;;;;;;;;;5022787;28;19929;-89
2023/09/15 00:51:26;;;;;;;;;;;;;;;;;;5040754;28;19944;-89
2023/09/15 00:53:52;;;;;;;;;;;;;;;;;;5036324;28;19936;-90
2023/09/15 00:56:18;;;;;;;;;;;;;;;;;;5020445;28;19935;-89
2023/09/15 00:58:44;;;;;;;;;;;;;;;;;;5021159;28;19935;-89
2023/09/15 01:01:10;;;;;;;;;;;;;;;;;;5027470;28;19925;-88
2023/09/15 01:03:35;;;;;;;;;;;;;;;;;;5027513;28;19928;-89
2023/09/15 01:06:01;;;;;;;;;;;;;;;;;;5028084;28;19929;-89
2023/09/15 01:08:27;;;;;;;;;;;;;;;;;;5037192;28;19925;-90
2023/09/15 01:10:53;;;;;;;;;;;;;;;;;;5024994;28;20018;-90
2023/09/15 01:13:19;;;;;;;;;;;;;;;;;;5020319;28;20372;-90
2023/09/15 01:15:45;;;;;;;;;;;;;;;;;;5010280;28;19929;-89
2023/09/15 01:18:11;;;;;;;;;;;;;;;;;;5044760;28;20292;-89
2023/09/15 01:20:37;;;;;;;;;;;;;;;;;;5045319;28;19929;-88
2023/09/15 01:23:03;;;;;;;;;;;;;;;;;;5028867;28;19976;-90
2023/09/15 01:25:29;;;;;;;;;;;;;;;;;;5026111;28;20380;-89
2023/09/15 01:27:55;;;;;;;;;;;;;;;;;;5022236;28;19924;-88
2023/09/15 01:30:21;;;;;;;;;;;;;;;;;;5024210;28;19935;-89
2023/09/15 01:32:47;;;;;;;;;;;;;;;;;;5023604;28;20300;-89
2023/09/15 01:35:13;;;;;;;;;;;;;;;;;;5035817;28;20402;-88
2023/09/15 01:37:39;;;;;;;;;;;;;;;;;;5038365;28;19925;-89
2023/09/15 01:40:06;;;;;;;;;;;;;;;;;;5026233;28;19929;-88
2023/09/15 01:42:32;;;;;;;;;;;;;;;;;;5022969;28;20230;-89
2023/09/15 01:44:58;;;;;;;;;;;;;;;;;;5037818;28;19928;-89
2023/09/15 01:47:24;;;;;;;;;;;;;;;;;;5039642;28;19947;-87
2023/09/15 01:49:50;;;;;;;;;;;;;;;;;;5037301;28;19936;-89
2023/09/15 01:52:16;;;;;;;;;;;;;;;;;;5023587;28;20293;-87
2023/09/15 01:54:42;;;;;;;;;;;;;;;;;;5043316;28;19995;-87
2023/09/15 01:57:08;;;;;;;;;;;;;;;;;;5037403;28;19924;-88
2023/09/15 01:59:34;;;;;;;;;;;;;;;;;;5036494;28;19929;-87
2023/09/15 02:02:00;;;;;;;;;;;;;;;;;;5041066;28;20581;-87
2023/09/15 02:04:26;;;;;;;;;;;;;;;;;;5036128;28;19940;-87
2023/09/15 02:06:52;;;;;;;;;;;;;;;;;;5024388;28;19928;-88
2023/09/15 02:09:18;;;;;;;;;;;;;;;;;;5039442;28;20080;-87
2023/09/15 02:11:44;;;;;;;;;;;;;;;;;;5039492;28;20003;-87
2023/09/15 02:14:12;;;;;;;;;;;;;;;;;;5028204;28;19928;-87
2023/09/15 02:16:38;;;;;;;;;;;;;;;;;;5036346;28;19925;-87
2023/09/15 02:19:06;;;;;;;;;;;;;;;;;;5039883;28;19971;-87
2023/09/15 02:21:32;;;;;;;;;;;;;;;;;;5020455;28;20245;-88
2023/09/15 02:23:58;;;;;;;;;;;;;;;;;;5040348;28;20060;-87
2023/09/15 02:26:24;;;;;;;;;;;;;;;;;;5025467;28;19982;-87
2023/09/15 02:28:50;;;;;;;;;;;;;;;;;;5026367;28;19936;-87
2023/09/15 02:31:16;;;;;;;;;;;;;;;;;;5040465;28;19955;-87
2023/09/15 02:33:41;;;;;;;;;;;;;;;;;;5022525;28;19933;-86
2023/09/15 02:36:07;;;;;;;;;;;;;;;;;;5022550;28;19940;-87
2023/09/15 02:38:34;;;;;;;;;;;;;;;;;;5041067;28;19929;-87
2023/09/15 02:41:00;;;;;;;;;;;;;;;;;;5024687;28;19944;-88
2023/09/15 02:43:26;;;;;;;;;;;;;;;;;;5041690;28;20567;-87
2023/09/15 02:45:52;;;;;;;;;;;;;;;;;;5037937;28;19928;-88
2023/09/15 02:48:18;;;;;;;;;;;;;;;;;;5020835;28;19929;-87
2023/09/15 02:50:45;;;;;;;;;;;;;;;;;;5041984;28;19932;-88
2023/09/15 02:53:11;;;;;;;;;;;;;;;;;;5020860;28;19972;-87
2023/09/15 02:55:40;;;;;;;;;;;;;;;;;;5042133;28;19968;-88
2023/09/15 02:58:06;;;;;;;;;;;;;;;;;;5040729;28;19929;-88
2023/09/15 03:00:31;;;;;;;;;;;;;;;;;;5024913;28;20001;-88
2023/09/15 03:02:57;;;;;;;;;;;;;;;;;;5041708;28;20644;-88
2023/09/15 03:05:24;;;;;;;;;;;;;;;;;;5029086;28;19929;-87
2023/09/15 03:07:51;;;;;;;;;;;;;;;;;;5025157;28;19929;-87
2023/09/15 03:10:17;;;;;;;;;;;;;;;;;;5025877;28;19929;-89
2023/09/15 03:12:43;;;;;;;;;;;;;;;;;;5025593;28;19925;-88
2023/09/15 03:15:09;;;;;;;;;;;;;;;;;;5042087;28;19982;-88
2023/09/15 03:17:35;;;;;;;;;;;;;;;;;;5026441;28;19975;-89
2023/09/15 03:20:06;;;;;;;;;;;;;;;;;;5021982;28;19940;-88
2023/09/15 03:22:32;;;;;;;;;;;;;;;;;;5024834;28;19932;-88
2023/09/15 03:24:58;;;;;;;;;;;;;;;;;;5043713;28;19928;-87
2023/09/15 03:27:23;;;;;;;;;;;;;;;;;;5029068;28;19935;-88
2023/09/15 03:29:49;;;;;;;;;;;;;;;;;;5039649;28;19936;-88
2023/09/15 03:32:16;;;;;;;;;;;;;;;;;;5027755;28;19929;-89
2023/09/15 03:34:42;;;;;;;;;;;;;;;;;;5022250;28;20059;-88
2023/09/15 03:37:08;;;;;;;;;;;;;;;;;;5042717;28;19932;-88
2023/09/15 03:39:34;;;;;;;;;;;;;;;;;;5042320;28;19935;-87
2023/09/15 03:42:00;;;;;;;;;;;;;;;;;;5024242;28;19975;-87
2023/09/15 03:44:26;;;;;;;;;;;;;;;;;;5041843;28;19986;-88
2023/09/15 03:46:52;;;;;;;;;;;;;;;;;;5028308;28;20251;-88
2023/09/15 03:49:18;;;;;;;;;;;;;;;;;;5024851;28;19925;-88
2023/09/15 03:51:44;;;;;;;;;;;;;;;;;;5024680;28;19925;-87
2023/09/15 03:54:10;;;;;;;;;;;;;;;;;;5025019;28;19975;-87
2023/09/15 03:56:36;;;;;;;;;;;;;;;;;;5028819;28;20019;-88
2023/09/15 03:59:03;;;;;;;;;;;;;;;;;;5044038;28;20055;-87
2023/09/15 04:01:29;;;;;;;;;;;;;;;;;;5018131;28;19970;-87
2023/09/15 04:03:56;;;;;;;;;;;;;;;;;;5028341;28;19936;-88
2023/09/15 04:06:22;;;;;;;;;;;;;;;;;;5023123;28;20269;-88
2023/09/15 04:08:48;;;;;;;;;;;;;;;;;;5042730;28;19929;-87
2023/09/15 04:11:13;;;;;;;;;;;;;;;;;;5026165;28;19924;-88
2023/09/15 04:13:40;;;;;;;;;;;;;;;;;;5023089;28;19975;-86
2023/09/15 04:16:09;;;;;;;;;;;;;;;;;;5019943;28;20021;-88
2023/09/15 04:18:35;;;;;;;;;;;;;;;;;;5023659;28;20384;-88
2023/09/15 04:21:00;;;;;;;;;;;;;;;;;;5025491;28;19974;-88
2023/09/15 04:23:26;;;;;;;;;;;;;;;;;;5025565;28;19928;-89
2023/09/15 04:25:52;;;;;;;;;;;;;;;;;;5028676;28;20019;-87
2023/09/15 04:28:18;;;;;;;;;;;;;;;;;;5048643;28;19997;-89
2023/09/15 04:30:47;;;;;;;;;;;;;;;;;;5045417;28;19990;-89
2023/09/15 04:33:13;;;;;;;;;;;;;;;;;;5045726;28;19932;-88
2023/09/15 04:35:39;;;;;;;;;;;;;;;;;;5030377;28;19990;-89
2023/09/15 04:38:06;;;;;;;;;;;;;;;;;;5028123;28;20857;-88
2023/09/15 04:40:32;;;;;;;;;;;;;;;;;;5041185;28;19940;-89
2023/09/15 04:42:59;;;;;;;;;;;;;;;;;;5029126;28;19928;-88
2023/09/15 04:45:25;;;;;;;;;;;;;;;;;;5042661;28;19935;-88
2023/09/15 04:47:51;;;;;;;;;;;;;;;;;;5043717;28;19925;-89
2023/09/15 04:50:17;;;;;;;;;;;;;;;;;;5026066;28;19964;-88
2023/09/15 04:52:43;;;;;;;;;;;;;;;;;;5027391;28;19928;-88
2023/09/15 04:55:09;;;;;;;;;;;;;;;;;;5026683;28;19928;-88
2023/09/15 04:57:34;;;;;;;;;;;;;;;;;;5029553;28;19928;-89
2023/09/15 05:00:01;;;;;;;;;;;;;;;;;;5027519;28;20304;-89
2023/09/15 05:02:30;;;;;;;;;;;;;;;;;;5025545;28;19936;-88
2023/09/15 05:04:56;;;;;;;;;;;;;;;;;;5026905;28;19929;-88
2023/09/15 05:07:22;;;;;;;;;;;;;;;;;;5045131;28;19921;-88
2023/09/15 05:09:48;;;;;;;;;;;;;;;;;;5025770;28;20338;-87
2023/09/15 05:12:13;;;;;;;;;;;;;;;;;;5046157;28;20034;-88
2023/09/15 05:14:39;;;;;;;;;;;;;;;;;;5029985;28;20428;-89
2023/09/15 05:17:05;;;;;;;;;;;;;;;;;;5047073;28;20384;-88
2023/09/15 05:19:31;;;;;;;;;;;;;;;;;;5028571;28;20299;-87
2023/09/15 05:21:57;;;;;;;;;;;;;;;;;;5027088;28;20140;-87
2023/09/15 05:24:24;;;;;;;;;;;;;;;;;;5036381;28;19933;-87
2023/09/15 05:26:50;;;;;;;;;;;;;;;;;;5040014;28;19928;-86
2023/09/15 05:29:16;;;;;;;;;;;;;;;;;;5043463;28;20452;-88
2023/09/15 05:31:42;;;;;;;;;;;;;;;;;;5041053;28;20335;-86
2023/09/15 05:34:08;;;;;;;;;;;;;;;;;;5024644;28;19963;-90
2023/09/15 05:36:34;;;;;;;;;;;;;;;;;;5021810;28;19936;-89
2023/09/15 05:39:00;;;;;;;;;;;;;;;;;;5021426;28;19929;-90
2023/09/15 05:41:26;;;;;;;;;;;;;;;;;;5016361;28;20408;-88
2023/09/15 05:43:52;;;;;;;;;;;;;;;;;;5024054;28;19929;-90
2023/09/15 05:46:18;;;;;;;;;;;;;;;;;;5022352;28;19933;-89
2023/09/15 05:48:44;;;;;;;;;;;;;;;;;;5026335;28;19929;-90
2023/09/15 05:51:10;;;;;;;;;;;;;;;;;;5014742;28;20208;-90
2023/09/15 05:53:36;;;;;;;;;;;;;;;;;;5014948;28;19991;-90
2023/09/15 05:56:03;;;;;;;;;;;;;;;;;;5018001;28;19968;-91
2023/09/15 05:58:29;;;;;;;;;;;;;;;;;;5017413;28;19940;-90
2023/09/15 06:00:57;;;;;;;;;;;;;;;;;;5014494;28;19925;-91
2023/09/15 06:03:23;;;;;;;;;;;;;;;;;;5014632;28;19929;-92
2023/09/15 06:05:49;;;;;;;;;;;;;;;;;;5014757;28;19928;-92
2023/09/15 06:08:15;;;;;;;;;;;;;;;;;;5011604;28;19932;-93
2023/09/15 06:10:41;;;;;;;;;;;;;;;;;;5015435;28;19929;-91
2023/09/15 06:13:07;;;;;;;;;;;;;;;;;;5010642;28;19929;-91
2023/09/15 06:15:34;;;;;;;;;;;;;;;;;;5018739;28;19928;-90
2023/09/15 06:18:00;;;;;;;;;;;;;;;;;;5017782;28;19936;-92
2023/09/15 06:20:30;;;;;;;;;;;;;;;;;;5032433;28;19929;-91
2023/09/15 06:22:56;;;;;;;;;;;;;;;;;;5029929;28;20395;-93
2023/09/15 06:25:22;;;;;;;;;;;;;;;;;;5031081;28;19924;-92
2023/09/15 06:27:49;;;;;;;;;;;;;;;;;;5012345;28;20053;-91
2023/09/15 06:30:15;;;;;;;;;;;;;;;;;;5015813;28;19925;-90
2023/09/15 06:32:41;;;;;;;;;;;;;;;;;;5019535;28;19935;-91
2023/09/15 06:35:10;;;;;;;;;;;;;;;;;;5012646;28;19932;-91
2023/09/15 06:37:36;;;;;;;;;;;;;;;;;;5017192;28;19935;-92
2023/09/15 06:40:03;;;;;;;;;;;;;;;;;;5020892;28;20280;-89
2023/09/15 06:42:29;;;;;;;;;;;;;;;;;;5018478;28;19929;-90
2023/09/15 06:44:58;;;;;;;;;;;;;;;;;;5019699;28;19928;-93
2023/09/15 06:47:24;;;;;;;;;;;;;;;;;;5018494;28;19979;-93
2023/09/15 06:49:50;;;;;;;;;;;;;;;;;;5017956;28;19929;-92
2023/09/15 06:52:16;;;;;;;;;;;;;;;;;;5037824;28;20385;-90
2023/09/15 06:54:42;;;;;;;;;;;;;;;;;;5020799;28;19931;-91
2023/09/15 06:57:08;;;;;;;;;;;;;;;;;;5040118;28;19939;-91
2023/09/15 06:59:34;;;;;;;;;;;;;;;;;;5017317;28;20023;-91
2023/09/15 07:02:02;;;;;;;;;;;;;;;;;;5018209;28;19929;-92
2023/09/15 07:04:28;;;;;;;;;;;;;;;;;;5017101;28;19929;-92
2023/09/15 07:06:54;;;;;;;;;;;;;;;;;;5024828;28;20028;-94
2023/09/15 07:09:20;;;;;;;;;;;;;;;;;;5022324;28;20292;-93
2023/09/15 07:11:46;;;;;;;;;;;;;;;;;;5019345;28;20377;-92
2023/09/15 07:14:12;;;;;;;;;;;;;;;;;;5021387;28;20399;-91
2023/09/15 07:16:38;;;;;;;;;;;;;;;;;;5025598;28;19943;-92
2023/09/15 07:19:04;;;;;;;;;;;;;;;;;;5026701;28;19929;-90
2023/09/15 07:21:29;;;;;;;;;;;;;;;;;;5010045;28;19928;-89
2023/09/15 07:23:55;;;;;;;;;;;;;;;;;;5041473;28;19975;-89
2023/09/15 07:26:24;;;;;;;;;;;;;;;;;;5022261;28;19982;-91
2023/09/15 07:28:50;;;;;;;;;;;;;;;;;;5020447;28;19929;-90
2023/09/15 07:31:17;;;;;;;;;;;;;;;;;;5018022;28;20294;-89
2023/09/15 07:33:45;;;;;;;;;;;;;;;;;;5009604;28;19937;-90
2023/09/15 07:36:11;;;;;;;;;;;;;;;;;;5013918;28;19929;-90
2023/09/15 07:38:37;;;;;;;;;;;;;;;;;;5017620;28;20016;-90
2023/09/15 07:41:04;;;;;;;;;;;;;;;;;;5040270;28;20302;-90
2023/09/15 07:43:29;;;;;;;;;;;;;;;;;;5027800;28;19933;-92
2023/09/15 07:45:55;;;;;;;;;;;;;;;;;;5020773;28;19928;-93
2023/09/15 07:48:21;;;;;;;;;;;;;;;;;;5022448;28;19928;-93
2023/09/15 07:50:47;;;;;;;;;;;;;;;;;;5028469;28;19928;-94
2023/09/15 07:53:13;;;;;;;;;;;;;;;;;;5036028;28;19929;-93
2023/09/15 07:55:39;;;;;;;;;;;;;;;;;;5026391;28;20393;-91
2023/09/15 07:58:05;;;;;;;;;;;;;;;;;;5034308;28;19980;-92
2023/09/15 08:00:31;;;;;;;;;;;;;;;;;;5020081;28;19975;-94
2023/09/15 08:03:00;;;;;;;;;;;;;;;;;;5026797;28;20195;-93
2023/09/15 08:05:26;;;;;;;;;;;;;;;;;;5025768;28;20015;-91
2023/09/15 08:07:52;;;;;;;;;;;;;;;;;;5034114;28;19963;-93
2023/09/15 08:10:19;;;;;;;;;;;;;;;;;;5016858;28;19932;-93
2023/09/15 08:12:45;;;;;;;;;;;;;;;;;;5020809;28;19971;-92
2023/09/15 08:15:11;;;;;;;;;;;;;;;;;;5025400;28;19933;-93
2023/09/15 08:17:37;;;;;;;;;;;;;;;;;;5013210;28;19979;-93
2023/09/15 08:20:04;;;;;;;;;;;;;;;;;;5012921;28;19936;-91
2023/09/15 08:22:31;;;;;;;;;;;;;;;;;;5040655;28;19937;-92
2023/09/15 08:24:58;;;;;;;;;;;;;;;;;;5039629;28;19929;-92
2023/09/15 08:27:24;;;;;;;;;;;;;;;;;;5036506;28;19952;-93
2023/09/15 08:29:50;;;;;;;;;;;;;;;;;;5014510;28;19931;-92
2023/09/15 08:32:16;;;;;;;;;;;;;;;;;;5020953;28;19978;-90
2023/09/15 08:34:42;;;;;;;;;;;;;;;;;;5035153;28;19936;-92
2023/09/15 08:37:08;;;;;;;;;;;;;;;;;;5023383;28;19936;-91
2023/09/15 08:39:34;;;;;;;;;;;;;;;;;;5026206;28;19944;-93
2023/09/15 08:42:00;;;;;;;;;;;;;;;;;;5026798;28;20047;-91
2023/09/15 08:44:26;;;;;;;;;;;;;;;;;;5019313;28;20032;-92
2023/09/15 08:46:52;;;;;;;;;;;;;;;;;;5038772;28;20028;-92
2023/09/15 08:49:18;;;;;;;;;;;;;;;;;;5019926;28;19939;-93
2023/09/15 08:51:44;;;;;;;;;;;;;;;;;;5020622;28;19933;-92
2023/09/15 08:54:10;;;;;;;;;;;;;;;;;;5018146;28;19929;-93
2023/09/15 08:56:36;;;;;;;;;;;;;;;;;;5016042;28;20365;-93
2023/09/15 08:59:03;;;;;;;;;;;;;;;;;;5042882;28;20405;-93
2023/09/15 09:01:29;;;;;;;;;;;;;;;;;;5030396;28;20557;-92
2023/09/15 09:03:55;;;;;;;;;;;;;;;;;;5011378;28;20031;-92
2023/09/15 09:06:22;;;;;;;;;;;;;;;;;;5013398;28;20023;-94
2023/09/15 09:08:48;;;;;;;;;;;;;;;;;;5013158;28;20292;-93
2023/09/15 09:11:14;;;;;;;;;;;;;;;;;;5012625;28;20033;-93
2023/09/15 09:13:40;;;;;;;;;;;;;;;;;;5030642;28;19932;-90
2023/09/15 09:16:07;;;;;;;;;;;;;;;;;;5041879;28;20373;-92
2023/09/15 09:18:33;;;;;;;;;;;;;;;;;;5019443;28;19932;-92
2023/09/15 09:20:59;;;;;;;;;;;;;;;;;;5034014;28;20367;-93
2023/09/15 09:23:31;;;;;;;;;;;;;;;;;;5016276;28;19929;-93
2023/09/15 09:25:57;;;;;;;;;;;;;;;;;;5031670;28;19924;-93
2023/09/15 09:28:23;;;;;;;;;;;;;;;;;;5036382;28;19940;-93
2023/09/15 09:30:48;;;;;;;;;;;;;;;;;;4978262;28;1752870;-93
2023/09/15 09:33:14;;;;;;;;;;;;;;;;;;5040158;28;19932;-92
2023/09/15 09:35:40;;;;;;;;;;;;;;;;;;5024242;28;19928;-91
2023/09/15 09:38:06;;;;;;;;;;;;;;;;;;5012130;28;20380;-93
2023/09/15 09:40:33;;;;;;;;;;;;;;;;;;5054024;28;20047;-92
2023/09/15 09:42:59;;;;;;;;;;;;;;;;;;5018697;28;20291;-92
2023/09/15 09:45:26;;;;;;;;;;;;;;;;;;5013119;28;20070;-92
2023/09/15 09:47:52;;;;;;;;;;;;;;;;;;5025384;28;19939;-93
2023/09/15 09:50:18;;;;;;;;;;;;;;;;;;5017158;28;20036;-92
2023/09/15 09:52:45;;;;;;;;;;;;;;;;;;5032211;28;19968;-92
2023/09/15 09:55:11;;;;;;;;;;;;;;;;;;5030303;28;20020;-93
2023/09/15 09:57:37;;;;;;;;;;;;;;;;;;5027252;28;20031;-93
2023/09/15 10:00:03;;;;;;;;;;;;;;;;;;5026851;28;19936;-91
2023/09/15 10:02:29;;;;;;;;;;;;;;;;;;5022404;28;19921;-93
2023/09/15 10:04:55;;;;;;;;;;;;;;;;;;5031632;28;19935;-89
2023/09/15 10:07:21;;;;;;;;;;;;;;;;;;5062684;28;19924;-92
2023/09/15 10:09:47;;;;;;;;;;;;;;;;;;5025611;28;19928;-93
2023/09/15 10:12:13;;;;;;;;;;;;;;;;;;5018246;28;20316;-92
2023/09/15 10:14:39;;;;;;;;;;;;;;;;;;5024074;28;20761;-91
2023/09/15 10:17:05;;;;;;;;;;;;;;;;;;5041485;28;19928;-93
2023/09/15 10:19:31;;;;;;;;;;;;;;;;;;5022935;28;20028;-93
2023/09/15 10:21:57;;;;;;;;;;;;;;;;;;5037049;28;19924;-93
2023/09/15 10:24:23;;;;;;;;;;;;;;;;;;5034961;28;19940;-93
2023/09/15 10:26:49;;;;;;;;;;;;;;;;;;5015856;28;19936;-92
2023/09/15 10:29:15;;;;;;;;;;;;;;;;;;5042936;28;19937;-92
2023/09/15 10:31:41;;;;;;;;;;;;;;;;;;5052700;28;20628;-92
2023/09/15 10:34:07;;;;;;;;;;;;;;;;;;5041942;28;19962;-90
2023/09/15 10:36:33;;;;;;;;;;;;;;;;;;5038728;28;20094;-92
2023/09/15 10:38:59;;;;;;;;;;;;;;;;;;5024726;28;19951;-92
2023/09/15 10:41:25;;;;;;;;;;;;;;;;;;5052205;28;19928;-92
2023/09/15 10:43:51;;;;;;;;;;;;;;;;;;5031012;28;19976;-93
2023/09/15 10:46:17;;;;;;;;;;;;;;;;;;5030179;28;19931;-93
2023/09/15 10:48:44;;;;;;;;;;;;;;;;;;5025592;28;19935;-92
2023/09/15 10:51:10;;;;;;;;;;;;;;;;;;5035880;28;19964;-93
2023/09/15 10:53:36;;;;;;;;;;;;;;;;;;5032773;28;19976;-91
2023/09/15 10:56:01;;;;;;;;;;;;;;;;;;5032907;28;19924;-90
2023/09/15 10:58:27;;;;;;;;;;;;;;;;;;5051560;28;19936;-92
2023/09/15 11:00:53;;;;;;;;;;;;;;;;;;5010565;28;20339;-92
2023/09/15 11:03:19;;;;;;;;;;;;;;;;;;5061423;28;20284;-93
2023/09/15 11:05:45;;;;;;;;;;;;;;;;;;5051843;28;19944;-92
2023/09/15 11:08:11;;;;;;;;;;;;;;;;;;5029399;28;19933;-92
2023/09/15 11:10:37;;;;;;;;;;;;;;;;;;5041726;28;19928;-92
2023/09/15 11:13:03;;;;;;;;;;;;;;;;;;5019903;28;19928;-92
2023/09/15 11:15:29;;;;;;;;;;;;;;;;;;5032584;28;19960;-93
2023/09/15 11:17:55;;;;;;;;;;;;;;;;;;5031750;28;19928;-92
2023/09/15 11:20:21;;;;;;;;;;;;;;;;;;5051379;28;19924;-92
2023/09/15 11:22:47;;;;;;;;;;;;;;;;;;5030475;28;19925;-92
2023/09/15 11:25:13;;;;;;;;;;;;;;;;;;5037801;28;19932;-93
2023/09/15 11:27:39;;;;;;;;;;;;;;;;;;5040025;28;19928;-92
2023/09/15 11:30:05;;;;;;;;;;;;;;;;;;5024545;28;19967;-93
2023/09/15 11:32:30;;;;;;;;;;;;;;;;;;5027344;28;19929;-90
2023/09/15 11:34:56;;;;;;;;;;;;;;;;;;5024973;28;19928;-91
2023/09/15 11:37:22;;;;;;;;;;;;;;;;;;5017313;28;19929;-91
2023/09/15 11:39:48;;;;;;;;;;;;;;;;;;5050858;28;20002;-92
2023/09/15 11:42:14;;;;;;;;;;;;;;;;;;5042281;28;19933;-92
2023/09/15 11:44:40;;;;;;;;;;;;;;;;;;5022395;28;19935;-91
2023/09/15 11:47:08;;;;;;;;;;;;;;;;;;5032784;28;19939;-91
2023/09/15 11:49:34;;;;;;;;;;;;;;;;;;5034994;28;20047;-94
2023/09/15 11:52:00;;;;;;;;;;;;;;;;;;5016348;28;19951;-93
2023/09/15 11:54:26;;;;;;;;;;;;;;;;;;5014562;28;19979;-92
2023/09/15 11:56:56;;;;;;;;;;;;;;;;;;5009246;28;19929;-92
2023/09/15 11:59:22;;;;;;;;;;;;;;;;;;5018779;28;20239;-94
2023/09/15 12:01:48;;;;;;;;;;;;;;;;;;5036679;28;20239;-92
2023/09/15 12:04:14;;;;;;;;;;;;;;;;;;5014928;28;19956;-94
2023/09/15 12:06:40;;;;;;;;;;;;;;;;;;5016254;28;20387;-93
2023/09/15 12:09:06;;;;;;;;;;;;;;;;;;5022552;28;19929;-93
2023/09/15 12:11:33;;;;;;;;;;;;;;;;;;5018676;28;20061;-94
2023/09/15 12:14:00;;;;;;;;;;;;;;;;;;5018857;28;20433;-92
2023/09/15 12:16:31;;;;;;;;;;;;;;;;;;5014185;28;20395;-93
2023/09/15 12:19:03;;;;;;;;;;;;;;;;;;5024963;28;20010;-92
2023/09/15 12:21:32;;;;;;;;;;;;;;;;;;5013979;28;19938;-93
2023/09/15 12:23:58;;;;;;;;;;;;;;;;;;5022899;28;20549;-92
2023/09/15 12:26:26;;;;;;;;;;;;;;;;;;5038144;28;19976;-92
2023/09/15 12:28:56;;;;;;;;;;;;;;;;;;5012181;28;19944;-93
2023/09/15 12:31:22;;;;;;;;;;;;;;;;;;5032395;28;21403;-93
2023/09/15 12:33:49;;;;;;;;;;;;;;;;;;5012723;28;19994;-93
2023/09/15 12:36:15;;;;;;;;;;;;;;;;;;5013407;28;19933;-93
2023/09/15 12:38:41;;;;;;;;;;;;;;;;;;5014420;28;20389;-93
2023/09/15 12:41:08;;;;;;;;;;;;;;;;;;5009423;28;19929;-93
2023/09/15 12:43:34;;;;;;;;;;;;;;;;;;5026230;28;20308;-94
2023/09/15 12:46:03;;;;;;;;;;;;;;;;;;5020933;28;20564;-93
2023/09/15 12:48:30;;;;;;;;;;;;;;;;;;5031559;28;19979;-93
2023/09/15 12:50:56;;;;;;;;;;;;;;;;;;5013823;28;19928;-93
2023/09/15 12:53:22;;;;;;;;;;;;;;;;;;5026429;28;19931;-94
2023/09/15 12:55:48;;;;;;;;;;;;;;;;;;5016473;28;20299;-93
2023/09/15 12:58:14;;;;;;;;;;;;;;;;;;5010498;28;19991;-93
2023/09/15 13:00:40;;;;;;;;;;;;;;;;;;5014159;28;20443;-93
2023/09/15 13:03:05;;;;;;;;;;;;;;;;;;5021632;28;20020;-93
2023/09/15 13:05:31;;;;;;;;;;;;;;;;;;5012975;28;20047;-92
2023/09/15 13:07:57;;;;;;;;;;;;;;;;;;5011970;28;20011;-93
2023/09/15 13:10:23;;;;;;;;;;;;;;;;;;5033352;28;19959;-93
2023/09/15 13:12:49;;;;;;;;;;;;;;;;;;5018134;28;19929;-94
2023/09/15 13:15:15;;;;;;;;;;;;;;;;;;5024672;28;20338;-94
2023/09/15 13:17:41;;;;;;;;;;;;;;;;;;5016326;28;20019;-93
2023/09/15 13:20:07;;;;;;;;;;;;;;;;;;5019682;28;19936;-93
2023/09/15 13:22:34;;;;;;;;;;;;;;;;;;5032620;28;19925;-93
2023/09/15 13:25:12;;;;;;;;;;;;;;;;;;5015407;28;19928;-92
2023/09/15 13:27:42;;;;;;;;;;;;;;;;;;5007628;28;19932;-92
2023/09/15 13:30:09;;;;;;;;;;;;;;;;;;5025650;28;19936;-94
2023/09/15 13:32:37;;;;;;;;;;;;;;;;;;5014213;28;19932;-93
2023/09/15 13:35:04;;;;;;;;;;;;;;;;;;5022870;28;19948;-93
2023/09/15 13:37:30;;;;;;;;;;;;;;;;;;5012851;28;19929;-93
2023/09/15 13:39:56;;;;;;;;;;;;;;;;;;5029007;28;19929;-92
2023/09/15 13:42:21;;;;;;;;;;;;;;;;;;5020881;28;19929;-92
2023/09/15 13:44:47;;;;;;;;;;;;;;;;;;5018413;28;19928;-93
2023/09/15 13:47:13;;;;;;;;;;;;;;;;;;5022301;28;19936;-92
2023/09/15 13:49:42;;;;;;;;;;;;;;;;;;5035741;28;20289;-92
2023/09/15 13:52:08;;;;;;;;;;;;;;;;;;5014645;28;19944;-92
2023/09/15 13:54:34;;;;;;;;;;;;;;;;;;5026487;28;19940;-93
2023/09/15 13:57:00;;;;;;;;;;;;;;;;;;5015505;28;20004;-93
2023/09/15 13:59:26;;;;;;;;;;;;;;;;;;5007132;28;19929;-93
2023/09/15 14:01:52;;;;;;;;;;;;;;;;;;5032806;28;20184;-92
2023/09/15 14:04:18;;;;;;;;;;;;;;;;;;5021587;28;19936;-93
2023/09/15 14:06:44;;;;;;;;;;;;;;;;;;5012868;28;19933;-93
2023/09/15 14:09:10;;;;;;;;;;;;;;;;;;5018183;28;20410;-92
2023/09/15 14:11:38;;;;;;;;;;;;;;;;;;5014462;28;20022;-93
2023/09/15 14:14:03;;;;;;;;;;;;;;;;;;5014105;28;19936;-92
2023/09/15 14:16:29;;;;;;;;;;;;;;;;;;5032651;28;19929;-94
2023/09/15 14:18:55;;;;;;;;;;;;;;;;;;5036955;28;20262;-92
2023/09/15 14:21:21;;;;;;;;;;;;;;;;;;5032619;28;19925;-93
2023/09/15 14:23:47;;;;;;;;;;;;;;;;;;5016680;28;19929;-93
2023/09/15 14:26:13;;;;;;;;;;;;;;;;;;5011141;28;20570;-93
2023/09/15 14:28:39;;;;;;;;;;;;;;;;;;5024980;28;20408;-94
2023/09/15 14:31:08;;;;;;;;;;;;;;;;;;5016899;28;19929;-93
2023/09/15 14:33:34;;;;;;;;;;;;;;;;;;5017275;28;19928;-93
2023/09/15 14:36:00;;;;;;;;;;;;;;;;;;5021287;28;20470;-91
2023/09/15 14:38:26;;;;;;;;;;;;;;;;;;5019700;28;19951;-93
2023/09/15 14:40:52;;;;;;;;;;;;;;;;;;5020809;28;19972;-92
2023/09/15 14:43:18;;;;;;;;;;;;;;;;;;5045107;28;19932;-92
2023/09/15 14:45:44;;;;;;;;;;;;;;;;;;5017524;28;19978;-93
2023/09/15 14:48:10;;;;;;;;;;;;;;;;;;5038891;28;19925;-94
2023/09/15 14:50:36;;;;;;;;;;;;;;;;;;5021007;28;19928;-93
2023/09/15 14:53:02;;;;;;;;;;;;;;;;;;5034052;28;19924;-92
2023/09/15 14:55:28;;;;;;;;;;;;;;;;;;5034841;28;19931;-92
2023/09/15 14:57:54;;;;;;;;;;;;;;;;;;5008603;28;19963;-92
2023/09/15 15:00:20;;;;;;;;;;;;;;;;;;5029923;28;19921;-93
2023/09/15 15:02:46;;;;;;;;;;;;;;;;;;5030011;28;19951;-92
2023/09/15 15:05:12;;;;;;;;;;;;;;;;;;5047559;28;19931;-92
2023/09/15 15:07:38;;;;;;;;;;;;;;;;;;5065181;28;19979;-92
2023/09/15 15:10:04;;;;;;;;;;;;;;;;;;5021327;28;20159;-93
2023/09/15 15:12:32;;;;;;;;;;;;;;;;;;5028450;28;19928;-92
2023/09/15 15:14:57;;;;;;;;;;;;;;;;;;5057402;28;19929;-92
2023/09/15 15:17:23;;;;;;;;;;;;;;;;;;5014700;28;19929;-92
2023/09/15 15:19:50;;;;;;;;;;;;;;;;;;5032058;28;20404;-89
2023/09/15 15:22:16;;;;;;;;;;;;;;;;;;5039259;28;19943;-89
2023/09/15 15:24:42;;;;;;;;;;;;;;;;;;5054085;28;19932;-88
2023/09/15 15:27:09;;;;;;;;;;;;;;;;;;5091392;22;19945;-89
2023/09/15 15:29:35;;;;;;;;;;;;;;;;;;5001791;28;20004;-92
2023/09/15 15:32:01;;;;;;;;;;;;;;;;;;5013309;28;19977;-90
2023/09/15 15:34:28;;;;;;;;;;;;;;;;;;4987490;28;20030;-91
2023/09/15 15:36:54;;;;;;;;;;;;;;;;;;4986048;28;19929;-89
2023/09/15 15:39:20;;;;;;;;;;;;;;;;;;4984342;28;19984;-88
2023/09/15 15:41:46;;;;;;;;;;;;;;;;;;4979850;28;19996;-91
2023/09/15 15:44:12;;;;;;;;;;;;;;;;;;4975738;28;19964;-89
2023/09/15 15:46:38;;;;;;;;;;;;;;;;;;4995309;28;19963;-90
2023/09/15 15:49:04;;;;;;;;;;;;;;;;;;4980831;28;20528;-89
2023/09/15 15:51:30;;;;;;;;;;;;;;;;;;5015466;28;20353;-90
2023/09/15 15:53:57;;;;;;;;;;;;;;;;;;4996787;28;19996;-89
2023/09/15 15:56:24;;;;;;;;;;;;;;;;;;4993119;28;20340;-89
2023/09/15 15:58:50;;;;;;;;;;;;;;;;;;4989816;28;19940;-90
2023/09/15 16:01:16;;;;;;;;;;;;;;;;;;4996922;28;19996;-89
2023/09/15 16:03:42;;;;;;;;;;;;;;;;;;4979643;28;19930;-90
2023/09/15 16:06:08;;;;;;;;;;;;;;;;;;4977842;28;19977;-92
2023/09/15 16:08:35;;;;;;;;;;;;;;;;;;4995935;28;20556;-90
2023/09/15 16:11:01;;;;;;;;;;;;;;;;;;4991229;28;19934;-91
2023/09/15 16:13:27;;;;;;;;;;;;;;;;;;4992225;28;20399;-90
2023/09/15 16:15:53;;;;;;;;;;;;;;;;;;4980936;28;19937;-90
2023/09/15 16:18:19;;;;;;;;;;;;;;;;;;4993278;28;20804;-90
2023/09/15 16:20:46;;;;;;;;;;;;;;;;;;4996420;28;20633;-90
2023/09/15 16:23:12;;;;;;;;;;;;;;;;;;4979361;28;19933;-89
2023/09/15 16:25:38;;;;;;;;;;;;;;;;;;5016515;28;19933;-89
2023/09/15 16:28:04;;;;;;;;;;;;;;;;;;4995901;28;19940;-93
2023/09/15 16:30:30;;;;;;;;;;;;;;;;;;4993420;28;20049;-89
2023/09/15 16:32:56;;;;;;;;;;;;;;;;;;4978638;28;19934;-89
2023/09/15 16:35:22;;;;;;;;;;;;;;;;;;4995518;28;19930;-89
2023/09/15 16:37:48;;;;;;;;;;;;;;;;;;4995290;28;19934;-91
2023/09/15 16:40:14;;;;;;;;;;;;;;;;;;4982548;28;20024;-92